Monday, March 30, 2015, 3:58 PM EDT
Back to Local

KCXY, Harrisburg Capital City

Location: New Cumberland, PA, United States Lat: 40.217
Local Time: 3:58 PM EDT (19:58 GMT) Lon: -76.85
Time Zone: US/Eastern Elev: 347 ft

Show me the last for .
Show Decoded

2015-03-30 14:56 METAR KCXY 301856Z 32012G28KT 10SM BKN070 12/M04 A2985 RMK AO2 PK WND 30028/1850
                 SLP110 T01171039 =
2015-03-30 13:56 METAR KCXY 301756Z 29016G28KT 10SM BKN065 OVC075 11/M03 A2986 RMK AO2 PK WND
                 28028/1750 SLP113 60000 T01111033 10122 20044 55005 =
2015-03-30 12:56 METAR KCXY 301656Z 28015G20KT 10SM BKN050 BKN060 10/M01 A2985 RMK AO2 SLP113
                 T01001011 =
2015-03-30 11:56 METAR KCXY 301556Z 24012G24KT 10SM BKN070 11/00 A2985 RMK AO2 SLP112 T01060000 =
2015-03-30 10:56 METAR KCXY 301456Z 26005KT 10SM OVC065 07/M02 A2987 RMK AO2 RAE1357B35E45 SLP118
                 P0000 60000 T00671022 57001 =
2015-03-30 09:56 METAR KCXY 301356Z 27006KT 10SM -RA FEW041 BKN065 OVC075 06/M04 A2987 RMK AO2
                 RAB23 SLP118 P0000 T00611044 =
2015-03-30 08:56 METAR KCXY 301256Z 27004KT 10SM OVC038 05/M07 A2987 RMK AO2 SLP119 T00501067 =
2015-03-30 06:56 METAR KCXY 301056Z 21008KT 10SM OVC038 04/M06 A2988 RMK AO2 SLP121 T00441061 =
2015-03-30 05:56 METAR KCXY 300956Z AUTO VRB04KT 10SM OVC046 03/M04 A2989 RMK AO2 SLP125
                 T00331044 =
2015-03-30 03:56 METAR KCXY 300756Z AUTO 00000KT 10SM BKN065 OVC080 03/M03 A2997 RMK AO2 SLP151
                 T00281033 =
2015-03-30 02:56 METAR KCXY 300656Z AUTO VRB06KT 10SM BKN070 OVC080 02/M02 A3000 RMK AO2 SNE05
                 SLP163 P0000 T00221022 =
2015-03-30 01:56 METAR KCXY 300556Z AUTO 21015G29KT 7SM -SN BKN036 OVC070 03/M06 A3006 RMK AO2 PK
                 WND 22029/0550 RAB50E55SNB55 SLP181 P0000 60000 T00331061 10050 20033 55013 =
2015-03-30 00:56 METAR KCXY 300456Z AUTO 00000KT 10SM SCT050 BKN075 OVC090 04/M14 A3003 RMK AO2
                 SLP175 T00391139 400781061 =
2015-03-29 23:56 METAR KCXY 300356Z AUTO 17007KT 10SM BKN110 04/M14 A3007 RMK AO2 SLP188
                 T00391144 =
2015-03-29 22:56 METAR KCXY 300256Z AUTO 17007KT 10SM CLR 04/M14 A3009 RMK AO2 SLP195 T00391144
                 58014 =
2015-03-29 21:56 METAR KCXY 300156Z AUTO 17008KT 10SM CLR 04/M13 A3011 RMK AO2 SLP200 T00391133 =
2015-03-29 20:56 METAR KCXY 300056Z AUTO 19007KT 10SM CLR 04/M14 A3014 RMK AO2 SLP209 T00441139 =
2015-03-29 19:56 METAR KCXY 292356Z AUTO 19007KT 10SM CLR 05/M14 A3013 RMK AO2 SLP209 T00501139
                 10078 20039 56026 =
2015-03-29 18:56 METAR KCXY 292256Z 17008KT 10SM CLR 06/M14 A3014 RMK AO2 SLP212 T00611144 =
2015-03-29 17:56 METAR KCXY 292156Z 24008KT 10SM CLR 07/M16 A3017 RMK AO2 SLP221 T00721161 =
2015-03-29 16:56 METAR KCXY 292056Z 29008KT 10SM CLR 07/M16 A3021 RMK AO2 SLP235 T00721156 56026
                 =

Support USWX by starting your Amazon purchase here.